createdAt,value
2023-03-06T00:00:58.158Z,98600.03
2023-03-06T00:03:27.790Z,98605.97
2023-03-06T00:05:57.391Z,98599.88
2023-03-06T00:08:26.438Z,98591.53
2023-03-06T00:10:54.146Z,98593.25
2023-03-06T00:13:21.120Z,98595.81
2023-03-06T00:15:49.232Z,98591.59
2023-03-06T00:18:16.505Z,98585.69
2023-03-06T00:20:44.469Z,98593.28
2023-03-06T00:23:12.563Z,98587.41
2023-03-06T00:25:45.043Z,98581.44
2023-03-06T00:28:12.414Z,98586.59
2023-03-06T00:30:39.689Z,98577.28
2023-03-06T00:33:06.954Z,98579.84
2023-03-06T00:35:33.922Z,98577.28
2023-03-06T00:38:00.916Z,98573.81
2023-03-06T00:40:27.907Z,98563.56
2023-03-06T00:42:54.907Z,98562.63
2023-03-06T00:45:22.020Z,98563.78
2023-03-06T00:47:49.176Z,98561.22
2023-03-06T00:50:16.528Z,98563.84
2023-03-06T00:52:43.534Z,98549.31
2023-03-06T00:55:11.613Z,98558.59
2023-03-06T00:57:39.313Z,98553.66
2023-03-06T01:00:08.328Z,98538.34
2023-03-06T01:02:35.407Z,98542.50
2023-03-06T01:05:02.897Z,98539.09
2023-03-06T01:07:34.025Z,98545.75
2023-03-06T01:10:01.034Z,98538.16
2023-03-06T01:12:30.717Z,98533.88
2023-03-06T01:14:57.653Z,98533.13
2023-03-06T01:17:24.618Z,98522.13
2023-03-06T01:19:51.624Z,98524.59
2023-03-06T01:22:18.535Z,98525.63
2023-03-06T01:24:45.475Z,98513.72
2023-03-06T01:27:12.355Z,98507.72
2023-03-06T01:29:39.392Z,98508.59
2023-03-06T01:32:06.629Z,98508.66
2023-03-06T01:34:33.559Z,98507.78
2023-03-06T01:37:00.474Z,98507.06
2023-03-06T01:39:28.719Z,98504.63
2023-03-06T01:41:55.600Z,98510.50
2023-03-06T01:44:22.699Z,98506.41
2023-03-06T01:46:49.675Z,98503.03
2023-03-06T01:49:35.299Z,98503.78
2023-03-06T01:52:15.740Z,98499.50
2023-03-06T01:55:02.413Z,98502.16
2023-03-06T01:57:43.916Z,98492.03
2023-03-06T02:00:13.217Z,98496.25
2023-03-06T02:02:51.525Z,98483.59
2023-03-06T02:05:18.811Z,98485.25
2023-03-06T02:07:47.265Z,98475.88
2023-03-06T02:10:16.377Z,98470.91
2023-03-06T02:12:46.044Z,98474.25
2023-03-06T02:15:17.276Z,98464.00
2023-03-06T02:17:46.223Z,98468.25
2023-03-06T02:20:28.100Z,98475.00
2023-03-06T02:23:06.914Z,98465.88
2023-03-06T02:25:42.815Z,98458.91
2023-03-06T02:28:15.155Z,98460.56
2023-03-06T02:30:44.701Z,98465.38
2023-03-06T02:33:18.733Z,98462.09
2023-03-06T02:35:59.803Z,98460.38
2023-03-06T02:38:47.415Z,98454.47
2023-03-06T02:41:14.697Z,98448.56
2023-03-06T02:43:45.419Z,98433.31
2023-03-06T02:46:13.812Z,98431.59
2023-03-06T02:48:40.821Z,98435.72
2023-03-06T02:51:07.761Z,98420.56
2023-03-06T02:53:34.648Z,98419.66
2023-03-06T02:56:01.690Z,98421.31
2023-03-06T02:58:28.717Z,98416.38
2023-03-06T03:00:55.689Z,98419.69
2023-03-06T03:03:22.900Z,98416.38
2023-03-06T03:05:49.824Z,98408.72
2023-03-06T03:08:28.323Z,98412.91
2023-03-06T03:10:59.921Z,98412.06
2023-03-06T03:13:31.079Z,98409.44
2023-03-06T03:16:09.108Z,98406.03
2023-03-06T03:18:36.469Z,98401.03
2023-03-06T03:21:11.932Z,98396.78
2023-03-06T03:23:39.725Z,98396.03
2023-03-06T03:26:10.642Z,98391.69
2023-03-06T03:28:40.481Z,98392.53
2023-03-06T03:31:11.072Z,98387.44
2023-03-06T03:33:39.581Z,98384.06
2023-03-06T03:36:08.585Z,98390.00
2023-03-06T03:38:39.641Z,98383.28
2023-03-06T03:41:06.914Z,98388.25
2023-03-06T03:43:34.093Z,98383.28
2023-03-06T03:46:01.400Z,98382.59
2023-03-06T03:48:29.214Z,98385.09
2023-03-06T03:51:06.136Z,98379.13
2023-03-06T03:53:35.057Z,98375.72
2023-03-06T03:56:02.481Z,98372.41
2023-03-06T03:58:30.383Z,98366.50
2023-03-06T04:00:57.511Z,98361.50
2023-03-06T04:03:24.433Z,98365.72
2023-03-06T04:05:53.984Z,98358.06
2023-03-06T04:08:22.518Z,98356.31
2023-03-06T04:10:53.341Z,98352.91
2023-03-06T04:13:22.002Z,98346.97
2023-03-06T04:15:53.066Z,98336.84
2023-03-06T04:18:23.417Z,98332.59
2023-03-06T04:20:52.634Z,98335.09
2023-03-06T04:23:20.612Z,98326.56
2023-03-06T04:25:47.818Z,98329.84
2023-03-06T04:28:15.049Z,98319.84
2023-03-06T04:30:43.066Z,98319.84
2023-03-06T04:33:10.600Z,98316.47
2023-03-06T04:35:37.737Z,98319.00
2023-03-06T04:38:09.662Z,98321.56
2023-03-06T04:40:36.811Z,98327.47
2023-03-06T04:43:04.989Z,98313.88
2023-03-06T04:45:33.402Z,98318.13
2023-03-06T04:48:00.806Z,98318.78
2023-03-06T04:50:32.432Z,98311.19
2023-03-06T04:53:03.549Z,98312.91
2023-03-06T04:55:31.239Z,98305.22
2023-03-06T04:57:58.967Z,98313.66
2023-03-06T05:00:30.550Z,98303.59
2023-03-06T05:03:01.245Z,98302.66
2023-03-06T05:05:29.240Z,98306.09
2023-03-06T05:07:56.617Z,98312.03
2023-03-06T05:10:23.957Z,98305.22
2023-03-06T05:12:51.291Z,98308.56
2023-03-06T05:15:18.669Z,98307.72
2023-03-06T05:17:47.449Z,98299.22
2023-03-06T05:20:17.339Z,98297.59
2023-03-06T05:22:44.501Z,98298.44
2023-03-06T05:25:11.812Z,98300.06
2023-03-06T05:27:39.875Z,98306.03
2023-03-06T05:30:09.973Z,98302.63
2023-03-06T05:32:36.908Z,98298.44
2023-03-06T05:35:05.585Z,98303.53
2023-03-06T05:37:33.362Z,98299.22
2023-03-06T05:40:00.397Z,98300.03
2023-03-06T05:42:28.754Z,98300.94
2023-03-06T05:44:55.752Z,98300.97
2023-03-06T05:47:22.793Z,98294.13
2023-03-06T05:49:49.859Z,98299.16
2023-03-06T05:52:17.571Z,98288.97
2023-03-06T05:54:44.587Z,98286.38
2023-03-06T05:57:11.571Z,98290.72
2023-03-06T05:59:38.505Z,98290.69
2023-03-06T06:02:05.660Z,98287.25
2023-03-06T06:04:32.924Z,98289.00
2023-03-06T06:07:01.015Z,98288.88
2023-03-06T06:09:29.285Z,98290.63
2023-03-06T06:12:03.673Z,98292.25
2023-03-06T06:14:34.161Z,98288.16
2023-03-06T06:17:01.931Z,98283.91
2023-03-06T06:19:30.957Z,98288.97
2023-03-06T06:21:58.599Z,98280.59
2023-03-06T06:24:26.817Z,98290.69
2023-03-06T06:26:56.012Z,98285.59
2023-03-06T06:29:23.636Z,98285.59
2023-03-06T06:31:51.510Z,98286.47
2023-03-06T06:34:19.374Z,98280.50
2023-03-06T06:36:46.389Z,98288.09
2023-03-06T06:39:19.263Z,98283.06
2023-03-06T06:42:02.168Z,98290.69
2023-03-06T06:44:32.739Z,98294.09
2023-03-06T06:47:21.984Z,98289.75
2023-03-06T06:49:53.848Z,98288.09
2023-03-06T06:52:22.071Z,98288.94
2023-03-06T06:54:49.001Z,98281.31
2023-03-06T06:57:16.904Z,98295.63
2023-03-06T06:59:44.002Z,98291.41
2023-03-06T07:02:13.512Z,98290.47
2023-03-06T07:04:49.336Z,98288.88
2023-03-06T07:07:27.739Z,98286.44
2023-03-06T07:09:55.967Z,98280.47
2023-03-06T07:12:23.022Z,98282.16
2023-03-06T07:14:50.129Z,98282.97
2023-03-06T07:17:17.075Z,98290.63
2023-03-06T07:19:44.036Z,98294.84
2023-03-06T07:22:11.360Z,98294.09
2023-03-06T07:24:38.280Z,98286.50
2023-03-06T07:27:05.253Z,98288.22
2023-03-06T07:29:34.038Z,98284.00
2023-03-06T07:32:01.730Z,98283.25
2023-03-06T07:34:28.760Z,98286.66
2023-03-06T07:36:55.703Z,98287.50
2023-03-06T07:39:22.556Z,98279.88
2023-03-06T07:41:49.446Z,98279.84
2023-03-06T07:44:16.390Z,98276.53
2023-03-06T07:46:43.370Z,98286.59
2023-03-06T07:49:10.365Z,98287.50
2023-03-06T07:51:37.330Z,98278.19
2023-03-06T07:54:04.200Z,98285.88
2023-03-06T07:56:31.166Z,98285.88
2023-03-06T07:58:58.109Z,98279.09
2023-03-06T08:01:25.186Z,98288.47
2023-03-06T08:03:52.990Z,98285.88
2023-03-06T08:06:25.676Z,98287.59
2023-03-06T08:08:55.274Z,98289.16
2023-03-06T08:11:25.706Z,98290.78
2023-03-06T08:13:53.607Z,98294.16
2023-03-06T08:16:23.217Z,98299.41
2023-03-06T08:18:50.637Z,98300.34
2023-03-06T08:21:22.060Z,98291.03
2023-03-06T08:23:49.785Z,98298.59
2023-03-06T08:26:26.586Z,98299.38
2023-03-06T08:28:55.613Z,98301.94
2023-03-06T08:31:40.008Z,98301.84
2023-03-06T08:34:19.821Z,98306.06
2023-03-06T08:36:47.201Z,98311.19
2023-03-06T08:39:14.361Z,98312.91
2023-03-06T08:41:44.835Z,98304.31
2023-03-06T08:44:12.608Z,98315.31
2023-03-06T08:46:39.791Z,98304.22
2023-03-06T08:49:07.093Z,98314.47
2023-03-06T08:51:34.066Z,98312.72
2023-03-06T08:54:00.937Z,98321.19
2023-03-06T08:56:31.991Z,98319.56
2023-03-06T08:59:01.858Z,98312.94
2023-03-06T09:01:33.064Z,98314.75
2023-03-06T09:04:03.573Z,98309.00
2023-03-06T09:06:33.902Z,98298.88
2023-03-06T09:09:01.025Z,98310.69
2023-03-06T09:11:28.356Z,98307.38
2023-03-06T09:13:56.669Z,98302.28
2023-03-06T09:16:24.720Z,98310.13
2023-03-06T09:18:53.003Z,98306.63
2023-03-06T09:21:24.882Z,98300.72
2023-03-06T09:23:51.926Z,98297.31
2023-03-06T09:26:18.956Z,98295.59
2023-03-06T09:28:46.423Z,98298.13
2023-03-06T09:31:17.742Z,98296.59
2023-03-06T09:33:45.316Z,98296.72
2023-03-06T09:36:21.762Z,98300.13
2023-03-06T09:38:50.136Z,98300.16
2023-03-06T09:41:32.369Z,98297.53
2023-03-06T09:44:15.540Z,98292.44
2023-03-06T09:47:03.688Z,98300.00
2023-03-06T09:49:58.195Z,98297.44
2023-03-06T09:52:34.698Z,98298.31
2023-03-06T09:55:12.482Z,98302.50
2023-03-06T09:58:00.830Z,98293.16
2023-03-06T10:00:45.537Z,98297.38
2023-03-06T10:03:47.358Z,98294.78
2023-03-06T10:06:39.646Z,98292.38
2023-03-06T10:09:19.624Z,98293.00
2023-03-06T10:12:12.848Z,98284.59
2023-03-06T10:14:57.883Z,98299.75
2023-03-06T10:17:37.687Z,98284.56
2023-03-06T10:20:28.864Z,98288.16
2023-03-06T10:23:12.965Z,98284.78
2023-03-06T10:26:03.048Z,98289.94
2023-03-06T10:29:05.841Z,98286.56
2023-03-06T10:31:34.359Z,98291.53
2023-03-06T10:34:23.485Z,98298.16
2023-03-06T10:36:51.152Z,98298.19
2023-03-06T10:39:21.796Z,98299.91
2023-03-06T10:41:49.861Z,98300.69
2023-03-06T10:44:23.455Z,98298.00
2023-03-06T10:46:53.621Z,98295.44
2023-03-06T10:49:35.611Z,98297.91
2023-03-06T10:52:14.464Z,98297.09
2023-03-06T10:54:44.420Z,98301.44
2023-03-06T10:57:32.562Z,98300.72
2023-03-06T11:00:05.057Z,98295.66
2023-03-06T11:02:41.067Z,98302.44
2023-03-06T11:05:21.521Z,98303.25
2023-03-06T11:07:59.420Z,98299.97
2023-03-06T11:10:28.838Z,98312.59
2023-03-06T11:13:08.988Z,98304.97
2023-03-06T11:15:36.311Z,98305.63
2023-03-06T11:18:07.856Z,98312.34
2023-03-06T11:20:52.020Z,98302.09
2023-03-06T11:23:44.294Z,98312.22
2023-03-06T11:26:17.105Z,98308.00
2023-03-06T11:28:50.115Z,98308.06
2023-03-06T11:31:25.382Z,98297.94
2023-03-06T11:34:07.291Z,98298.66
2023-03-06T11:37:00.474Z,98303.78
2023-03-06T11:40:09.000Z,98296.81
2023-03-06T11:42:38.156Z,98301.13
2023-03-06T11:45:25.864Z,98298.72
2023-03-06T11:48:03.197Z,98290.22
2023-03-06T11:50:43.212Z,98288.31
2023-03-06T11:53:17.388Z,98283.13
2023-03-06T11:55:59.893Z,98289.06
2023-03-06T11:58:44.930Z,98285.44
2023-03-06T12:01:20.700Z,98290.13
2023-03-06T12:04:22.611Z,98292.25
2023-03-06T12:07:20.604Z,98308.72
2023-03-06T12:10:08.350Z,98305.00
2023-03-06T12:13:12.508Z,98298.94
2023-03-06T12:15:57.553Z,98292.63
2023-03-06T12:18:55.760Z,98294.75
2023-03-06T12:21:40.608Z,98293.38
2023-03-06T12:24:29.351Z,98288.50
2023-03-06T12:27:42.582Z,98293.75
2023-03-06T12:30:33.139Z,98278.72
2023-03-06T12:33:40.853Z,98281.34
2023-03-06T12:37:02.307Z,98283.38
2023-03-06T12:39:54.426Z,98274.88
2023-03-06T12:42:49.084Z,98277.47
2023-03-06T12:45:33.908Z,98277.38
2023-03-06T12:48:02.076Z,98268.16
2023-03-06T12:50:37.080Z,98264.00
2023-03-06T12:53:11.479Z,98256.44
2023-03-06T12:55:48.774Z,98244.72
2023-03-06T12:58:30.812Z,98254.06
2023-03-06T13:01:41.915Z,98244.91
2023-03-06T13:04:56.599Z,98245.06
2023-03-06T13:08:03.517Z,98238.28
2023-03-06T13:10:36.308Z,98241.75
2023-03-06T13:13:05.136Z,98238.53
2023-03-06T13:15:41.084Z,98249.59
2023-03-06T13:18:23.375Z,98246.31
2023-03-06T13:20:55.956Z,98247.13
2023-03-06T13:23:32.039Z,98249.72
2023-03-06T13:26:02.085Z,98248.06
2023-03-06T13:28:50.651Z,98265.09
2023-03-06T13:31:32.339Z,98265.03
2023-03-06T13:34:04.376Z,98269.06
2023-03-06T13:36:39.394Z,98267.06
2023-03-06T13:39:11.993Z,98267.84
2023-03-06T13:41:44.637Z,98272.06
2023-03-06T13:44:43.553Z,98267.59
2023-03-06T13:48:22.595Z,98273.38
2023-03-06T13:50:48.783Z,98269.63
2023-03-06T13:53:44.593Z,98270.59
2023-03-06T13:56:33.337Z,98258.81
2023-03-06T13:59:43.975Z,98267.06
2023-03-06T14:02:52.036Z,98261.28
2023-03-06T14:05:19.549Z,98256.41
2023-03-06T14:08:01.132Z,98259.84
2023-03-06T14:10:35.661Z,98258.13
2023-03-06T14:13:47.845Z,98250.66
2023-03-06T14:16:49.417Z,98243.06
2023-03-06T14:19:18.915Z,98247.41
2023-03-06T14:21:57.467Z,98238.00
2023-03-06T14:24:52.421Z,98236.31
2023-03-06T14:27:19.889Z,98243.06
2023-03-06T14:29:48.673Z,98238.06
2023-03-06T14:32:22.394Z,98240.56
2023-03-06T14:34:49.464Z,98227.06
2023-03-06T14:37:24.579Z,98228.81
2023-03-06T14:39:52.173Z,98232.31
2023-03-06T14:42:24.760Z,98227.28
2023-03-06T14:45:18.673Z,98234.06
2023-03-06T14:47:53.053Z,98223.00
2023-03-06T14:50:32.820Z,98223.88
2023-03-06T14:53:05.594Z,98223.03
2023-03-06T14:55:36.199Z,98220.63
2023-03-06T14:58:12.719Z,98227.53
2023-03-06T15:00:45.273Z,98226.75
2023-03-06T15:03:28.406Z,98226.72
2023-03-06T15:05:55.890Z,98224.16
2023-03-06T15:08:30.148Z,98228.31
2023-03-06T15:11:03.771Z,98217.34
2023-03-06T15:13:33.150Z,98220.72
2023-03-06T15:16:24.239Z,98222.44
2023-03-06T15:19:02.320Z,98228.31
2023-03-06T15:21:38.806Z,98219.75
2023-03-06T15:24:30.695Z,98218.94
2023-03-06T15:27:21.379Z,98218.94
2023-03-06T15:29:48.287Z,98215.50
2023-03-06T15:32:29.478Z,98218.97
2023-03-06T15:35:51.099Z,98214.72
2023-03-06T15:38:37.320Z,98212.16
2023-03-06T15:41:07.082Z,98212.19
2023-03-06T15:43:39.765Z,98208.72
2023-03-06T15:46:07.776Z,98207.00
2023-03-06T15:48:35.513Z,98211.31
2023-03-06T15:51:03.379Z,98201.94
2023-03-06T15:53:30.376Z,98210.41
2023-03-06T15:55:58.975Z,98201.09
2023-03-06T15:58:29.345Z,98201.97
2023-03-06T16:00:56.311Z,98201.16
2023-03-06T16:03:23.269Z,98196.94
2023-03-06T16:05:50.282Z,98203.69
2023-03-06T16:08:17.258Z,98200.28
2023-03-06T16:10:45.131Z,98200.28
2023-03-06T16:13:27.254Z,98194.31
2023-03-06T16:15:54.705Z,98196.03
2023-03-06T16:18:21.643Z,98188.34
2023-03-06T16:20:49.680Z,98190.03
2023-03-06T16:23:16.654Z,98191.69
2023-03-06T16:25:48.498Z,98196.75
2023-03-06T16:28:16.851Z,98187.41
2023-03-06T16:30:45.097Z,98195.00
2023-03-06T16:33:13.598Z,98192.34
2023-03-06T16:35:41.267Z,98194.97
2023-03-06T16:38:09.845Z,98189.75
2023-03-06T16:40:41.157Z,98187.16
2023-03-06T16:43:10.472Z,98183.69
2023-03-06T16:45:41.784Z,98184.47
2023-03-06T16:48:15.997Z,98177.59
2023-03-06T16:50:43.244Z,98183.50
2023-03-06T16:53:10.200Z,98186.00
2023-03-06T16:55:37.282Z,98184.28
2023-03-06T16:58:04.600Z,98189.25
2023-03-06T17:00:33.201Z,98185.78
2023-03-06T17:03:02.953Z,98189.13
2023-03-06T17:05:37.008Z,98178.88
2023-03-06T17:08:04.690Z,98181.31
2023-03-06T17:10:31.686Z,98177.06
2023-03-06T17:12:58.708Z,98173.56
2023-03-06T17:15:25.955Z,98176.88
2023-03-06T17:17:53.320Z,98175.13
2023-03-06T17:20:20.483Z,98181.88
2023-03-06T17:22:47.475Z,98183.53
2023-03-06T17:25:14.587Z,98182.63
2023-03-06T17:27:41.854Z,98177.44
2023-03-06T17:30:10.265Z,98182.41
2023-03-06T17:32:40.791Z,98188.22
2023-03-06T17:35:10.132Z,98195.81
2023-03-06T17:37:37.039Z,98193.16
2023-03-06T17:40:07.063Z,98186.34
2023-03-06T17:42:35.253Z,98189.72
2023-03-06T17:45:02.413Z,98192.19
2023-03-06T17:47:30.824Z,98189.56
2023-03-06T17:49:57.714Z,98187.00
2023-03-06T17:52:24.977Z,98182.75
2023-03-06T17:54:51.951Z,98180.22
2023-03-06T17:57:18.870Z,98178.50
2023-03-06T17:59:48.617Z,98174.22
2023-03-06T18:02:16.309Z,98182.75
2023-03-06T18:04:43.424Z,98181.06
2023-03-06T18:07:10.507Z,98177.69
2023-03-06T18:09:37.849Z,98172.56
2023-03-06T18:12:04.922Z,98166.66
2023-03-06T18:14:31.924Z,98170.84
2023-03-06T18:16:58.873Z,98162.44
2023-03-06T18:19:25.906Z,98168.53
2023-03-06T18:21:52.816Z,98154.06
2023-03-06T18:24:21.037Z,98154.88
2023-03-06T18:26:47.923Z,98151.59
2023-03-06T18:29:15.124Z,98149.94
2023-03-06T18:31:43.090Z,98149.06
2023-03-06T18:34:13.704Z,98145.78
2023-03-06T18:36:43.517Z,98146.59
2023-03-06T18:39:13.084Z,98144.00
2023-03-06T18:41:40.136Z,98135.56
2023-03-06T18:44:07.718Z,98149.13
2023-03-06T18:46:37.953Z,98136.41
2023-03-06T18:49:05.988Z,98144.06
2023-03-06T18:51:33.635Z,98143.91
2023-03-06T18:54:02.318Z,98137.06
2023-03-06T18:56:29.911Z,98143.00
2023-03-06T18:59:00.274Z,98132.84
2023-03-06T19:01:30.637Z,98133.75
2023-03-06T19:04:02.660Z,98131.31
2023-03-06T19:06:30.190Z,98138.13
2023-03-06T19:09:01.718Z,98134.69
2023-03-06T19:11:29.246Z,98126.28
2023-03-06T19:13:56.206Z,98132.28
2023-03-06T19:16:26.589Z,98119.66
2023-03-06T19:18:57.540Z,98117.91
2023-03-06T19:21:27.553Z,98115.47
2023-03-06T19:23:56.048Z,98108.78
2023-03-06T19:26:23.300Z,98115.50
2023-03-06T19:28:51.303Z,98118.06
2023-03-06T19:31:29.605Z,98105.56
2023-03-06T19:33:57.022Z,98107.34
2023-03-06T19:36:28.703Z,98114.81
2023-03-06T19:39:04.123Z,98105.44
2023-03-06T19:41:31.183Z,98106.22
2023-03-06T19:44:02.318Z,98104.66
2023-03-06T19:46:29.595Z,98101.25
2023-03-06T19:48:59.549Z,98091.09
2023-03-06T19:51:27.217Z,98088.56
2023-03-06T19:53:54.304Z,98088.59
2023-03-06T19:56:29.084Z,98082.69
2023-03-06T19:58:56.286Z,98078.41
2023-03-06T20:01:26.728Z,98082.56
2023-03-06T20:03:59.436Z,98069.13
2023-03-06T20:06:33.724Z,98077.69
2023-03-06T20:09:05.214Z,98070.09
2023-03-06T20:11:32.509Z,98070.09
2023-03-06T20:14:02.367Z,98073.50
2023-03-06T20:16:30.021Z,98071.88
2023-03-06T20:18:59.958Z,98067.53
2023-03-06T20:21:29.463Z,98049.75
2023-03-06T20:23:58.159Z,98053.91
2023-03-06T20:26:28.314Z,98053.81
2023-03-06T20:28:55.861Z,98045.31
2023-03-06T20:31:26.149Z,98045.31
2023-03-06T20:33:54.500Z,98041.13
2023-03-06T20:36:35.899Z,98041.28
2023-03-06T20:39:07.067Z,98037.06
2023-03-06T20:41:34.013Z,98035.41
2023-03-06T20:44:04.141Z,98038.78
2023-03-06T20:46:32.142Z,98037.16
2023-03-06T20:48:59.680Z,98027.88
2023-03-06T20:51:31.461Z,98031.25
2023-03-06T20:54:01.092Z,98029.56
2023-03-06T20:56:33.826Z,98026.94
2023-03-06T20:59:01.847Z,98021.09
2023-03-06T21:01:30.895Z,98027.78
2023-03-06T21:03:59.077Z,98022.69
2023-03-06T21:06:28.776Z,98014.22
2023-03-06T21:09:00.842Z,98012.53
2023-03-06T21:11:28.666Z,98003.16
2023-03-06T21:13:56.237Z,98005.75
2023-03-06T21:16:25.791Z,98000.63
2023-03-06T21:18:55.045Z,98005.72
2023-03-06T21:21:24.158Z,98000.75
2023-03-06T21:23:51.566Z,97995.59
2023-03-06T21:26:22.000Z,97995.69
2023-03-06T21:28:49.296Z,97989.81
2023-03-06T21:31:19.336Z,97979.69
2023-03-06T21:33:47.692Z,97978.88
2023-03-06T21:36:15.554Z,97971.25
2023-03-06T21:38:42.564Z,97970.38
2023-03-06T21:41:21.674Z,97963.63
2023-03-06T21:43:48.683Z,97964.44
2023-03-06T21:46:16.046Z,97958.56
2023-03-06T21:48:43.145Z,97950.09
2023-03-06T21:51:16.896Z,97941.72
2023-03-06T21:53:45.548Z,97942.53
2023-03-06T21:56:14.456Z,97934.94
2023-03-06T21:58:41.720Z,97936.66
2023-03-06T22:01:20.011Z,97929.09
2023-03-06T22:03:47.250Z,97926.50
2023-03-06T22:06:18.274Z,97923.06
2023-03-06T22:08:45.793Z,97918.75
2023-03-06T22:11:17.076Z,97913.72
2023-03-06T22:13:45.480Z,97906.03
2023-03-06T22:16:13.671Z,97906.06
2023-03-06T22:18:45.617Z,97906.91
2023-03-06T22:21:16.433Z,97895.94
2023-03-06T22:23:43.919Z,97895.94
2023-03-06T22:26:13.632Z,97889.19
2023-03-06T22:28:41.558Z,97882.38
2023-03-06T22:31:14.870Z,97877.28
2023-03-06T22:33:42.448Z,97873.88
2023-03-06T22:36:15.863Z,97868.81
2023-03-06T22:38:45.702Z,97871.34
2023-03-06T22:41:15.503Z,97865.38
2023-03-06T22:43:43.576Z,97861.06
2023-03-06T22:46:14.668Z,97856.00
2023-03-06T22:48:42.485Z,97851.75
2023-03-06T22:51:16.719Z,97845.81
2023-03-06T22:53:44.439Z,97839.88
2023-03-06T22:56:15.397Z,97832.25
2023-03-06T22:58:44.746Z,97836.47
2023-03-06T23:01:17.849Z,97837.25
2023-03-06T23:03:47.945Z,97823.78
2023-03-06T23:06:22.375Z,97825.47
2023-03-06T23:08:55.345Z,97822.94
2023-03-06T23:11:23.902Z,97817.88
2023-03-06T23:14:12.553Z,97810.28
2023-03-06T23:16:58.126Z,97804.31
2023-03-06T23:19:43.773Z,97795.81
2023-03-06T23:22:30.564Z,97795.81
2023-03-06T23:25:15.965Z,97783.94
2023-03-06T23:27:42.959Z,97785.59
2023-03-06T23:30:10.908Z,97781.38
2023-03-06T23:32:38.114Z,97783.91
2023-03-06T23:35:05.581Z,97770.41
2023-03-06T23:37:32.790Z,97763.63
2023-03-06T23:40:01.529Z,97756.91
2023-03-06T23:42:29.922Z,97753.47
2023-03-06T23:44:56.868Z,97742.53
2023-03-06T23:47:23.989Z,97745.00
2023-03-06T23:49:50.890Z,97740.78
2023-03-06T23:52:17.871Z,97740.72
2023-03-06T23:54:44.830Z,97728.91
2023-03-06T23:57:11.810Z,97736.53
2023-03-06T23:59:38.812Z,97727.19
